Aviation Digital Data Service (ADDS)

Output produced by METARs form (1813 UTC 24 June 2019)
found at http://www.aviationweather.gov/metar/data/
 
Forecast for: OEDR (DHAHRAN INTL (MI, SA)
Text: TAF OEDR 241408Z 2418/2524 VRB05KT CAVOK
Forecast period: 1800 UTC 24 June 2019 to 0300 UTC 25 June 2019
Forecast type: FROM: standard forecast or significant change
Winds: variable direction winds at 6 MPH (5 knots; 2.6 m/s)
Visibility: 6 or more miles 10+ km)
Ceiling: unknown
Clouds: missing
Weather: NSW  (no significant weather)
Text: BECMG 2503/2505 34017KT
Forecast period: 0300 UTC 25 June 2019 to 0000 UTC 26 June 2019
Forecast type: BECOMING: Conditions expected to become as follows by 0500 UTC 25 June 2019
Winds: from the NNW (340 degrees) at 20 MPH (17 knots; 8.7 m/s)
Visibility: 6 or more miles 10+ km)
Ceiling: unknown
Clouds: missing
Weather: NSW  (no significant weather)
Text: PROB30
Forecast period: 0600 to 1200 UTC 25 June 2019
Forecast type: TEMPORARY: The following changes expected for less than half the time period
Visibility: 3 miles (5 km)
Ceiling: unknown
Clouds: missing
Weather: BLDU  (blowing dust)